sensor_id;sensor_type;location;lat;lon;timestamp;P1;durP1;ratioP1;P2;durP2;ratioP2
27839;SDS011;15207;42.182;24.308;2023-05-18T00:02:06;48.03;;;22.77;;
27839;SDS011;15207;42.182;24.308;2023-05-18T00:04:32;35.60;;;20.35;;
27839;SDS011;15207;42.182;24.308;2023-05-18T00:06:59;36.63;;;20.00;;
27839;SDS011;15207;42.182;24.308;2023-05-18T00:09:35;37.60;;;20.52;;
27839;SDS011;15207;42.182;24.308;2023-05-18T00:12:02;33.08;;;19.42;;
27839;SDS011;15207;42.182;24.308;2023-05-18T00:14:29;31.30;;;18.00;;
27839;SDS011;15207;42.182;24.308;2023-05-18T00:16:55;33.38;;;18.90;;
27839;SDS011;15207;42.182;24.308;2023-05-18T00:19:22;34.83;;;17.88;;
27839;SDS011;15207;42.182;24.308;2023-05-18T00:21:49;33.40;;;18.90;;
27839;SDS011;15207;42.182;24.308;2023-05-18T00:24:15;36.40;;;19.00;;
27839;SDS011;15207;42.182;24.308;2023-05-18T00:26:42;35.22;;;18.42;;
27839;SDS011;15207;42.182;24.308;2023-05-18T00:29:11;38.70;;;18.65;;
27839;SDS011;15207;42.182;24.308;2023-05-18T00:31:37;32.37;;;17.90;;
27839;SDS011;15207;42.182;24.308;2023-05-18T00:34:07;32.30;;;17.95;;
27839;SDS011;15207;42.182;24.308;2023-05-18T00:36:34;35.80;;;18.30;;
27839;SDS011;15207;42.182;24.308;2023-05-18T00:39:01;30.75;;;16.60;;
27839;SDS011;15207;42.182;24.308;2023-05-18T00:41:28;31.75;;;17.45;;
27839;SDS011;15207;42.182;24.308;2023-05-18T00:43:55;31.85;;;15.93;;
27839;SDS011;15207;42.182;24.308;2023-05-18T00:46:21;29.10;;;17.10;;
27839;SDS011;15207;42.182;24.308;2023-05-18T00:48:48;29.50;;;16.70;;
27839;SDS011;15207;42.182;24.308;2023-05-18T00:51:16;31.80;;;16.20;;
27839;SDS011;15207;42.182;24.308;2023-05-18T00:53:44;30.25;;;15.60;;
27839;SDS011;15207;42.182;24.308;2023-05-18T00:56:10;30.75;;;16.33;;
27839;SDS011;15207;42.182;24.308;2023-05-18T00:58:39;30.65;;;15.95;;
27839;SDS011;15207;42.182;24.308;2023-05-18T01:01:06;26.20;;;15.60;;
27839;SDS011;15207;42.182;24.308;2023-05-18T01:03:36;24.30;;;14.40;;
27839;SDS011;15207;42.182;24.308;2023-05-18T01:08:32;30.50;;;15.00;;
27839;SDS011;15207;42.182;24.308;2023-05-18T01:16:38;30.00;;;15.35;;
27839;SDS011;15207;42.182;24.308;2023-05-18T01:19:42;24.40;;;13.50;;
27839;SDS011;15207;42.182;24.308;2023-05-18T01:27:57;13.70;;;8.40;;
27839;SDS011;15207;42.182;24.308;2023-05-18T01:30:31;17.00;;;9.00;;
27839;SDS011;15207;42.182;24.308;2023-05-18T01:32:58;12.15;;;7.95;;
27839;SDS011;15207;42.182;24.308;2023-05-18T01:35:24;22.23;;;9.23;;
27839;SDS011;15207;42.182;24.308;2023-05-18T01:37:50;19.20;;;9.20;;
27839;SDS011;15207;42.182;24.308;2023-05-18T01:40:16;15.70;;;9.30;;
27839;SDS011;15207;42.182;24.308;2023-05-18T01:42:43;18.00;;;8.80;;
27839;SDS011;15207;42.182;24.308;2023-05-18T01:50:14;18.65;;;8.70;;
27839;SDS011;15207;42.182;24.308;2023-05-18T01:52:45;12.38;;;7.70;;
27839;SDS011;15207;42.182;24.308;2023-05-18T01:55:18;14.50;;;7.90;;
27839;SDS011;15207;42.182;24.308;2023-05-18T01:57:45;12.27;;;8.10;;
27839;SDS011;15207;42.182;24.308;2023-05-18T02:00:14;15.90;;;8.40;;
27839;SDS011;15207;42.182;24.308;2023-05-18T02:02:41;18.80;;;9.45;;
27839;SDS011;15207;42.182;24.308;2023-05-18T02:05:07;16.40;;;9.30;;
27839;SDS011;15207;42.182;24.308;2023-05-18T02:07:36;17.70;;;9.30;;
27839;SDS011;15207;42.182;24.308;2023-05-18T02:10:03;15.20;;;8.68;;
27839;SDS011;15207;42.182;24.308;2023-05-18T02:12:30;19.50;;;8.45;;
27839;SDS011;15207;42.182;24.308;2023-05-18T02:14:55;16.63;;;8.50;;
27839;SDS011;15207;42.182;24.308;2023-05-18T02:17:22;16.93;;;8.67;;
27839;SDS011;15207;42.182;24.308;2023-05-18T02:19:50;16.07;;;9.60;;
27839;SDS011;15207;42.182;24.308;2023-05-18T02:22:16;17.40;;;10.30;;
27839;SDS011;15207;42.182;24.308;2023-05-18T02:24:42;18.70;;;9.40;;
27839;SDS011;15207;42.182;24.308;2023-05-18T02:27:10;21.05;;;10.85;;
27839;SDS011;15207;42.182;24.308;2023-05-18T02:29:36;21.05;;;11.20;;
27839;SDS011;15207;42.182;24.308;2023-05-18T02:32:02;20.40;;;11.15;;
27839;SDS011;15207;42.182;24.308;2023-05-18T02:34:28;21.30;;;10.40;;
27839;SDS011;15207;42.182;24.308;2023-05-18T02:36:56;21.40;;;11.25;;
27839;SDS011;15207;42.182;24.308;2023-05-18T02:39:22;25.95;;;11.40;;
27839;SDS011;15207;42.182;24.308;2023-05-18T02:41:47;24.65;;;12.00;;
27839;SDS011;15207;42.182;24.308;2023-05-18T02:44:13;22.20;;;12.00;;
27839;SDS011;15207;42.182;24.308;2023-05-18T02:46:38;27.30;;;14.75;;
27839;SDS011;15207;42.182;24.308;2023-05-18T02:49:04;28.03;;;14.43;;
27839;SDS011;15207;42.182;24.308;2023-05-18T02:51:30;28.73;;;15.47;;
27839;SDS011;15207;42.182;24.308;2023-05-18T02:53:56;30.70;;;15.75;;
27839;SDS011;15207;42.182;24.308;2023-05-18T02:56:22;28.60;;;16.50;;
27839;SDS011;15207;42.182;24.308;2023-05-18T02:58:47;34.40;;;17.17;;
27839;SDS011;15207;42.182;24.308;2023-05-18T03:01:13;35.10;;;17.60;;
27839;SDS011;15207;42.182;24.308;2023-05-18T03:03:40;31.85;;;17.80;;
27839;SDS011;15207;42.182;24.308;2023-05-18T03:06:07;29.17;;;17.33;;
27839;SDS011;15207;42.182;24.308;2023-05-18T03:08:33;32.20;;;18.00;;
27839;SDS011;15207;42.182;24.308;2023-05-18T03:11:01;30.20;;;17.90;;
27839;SDS011;15207;42.182;24.308;2023-05-18T03:13:26;28.85;;;17.65;;
27839;SDS011;15207;42.182;24.308;2023-05-18T03:15:52;39.88;;;20.77;;
27839;SDS011;15207;42.182;24.308;2023-05-18T03:18:20;36.80;;;22.10;;
27839;SDS011;15207;42.182;24.308;2023-05-18T03:20:46;34.00;;;19.60;;
27839;SDS011;15207;42.182;24.308;2023-05-18T03:23:14;32.60;;;18.17;;
27839;SDS011;15207;42.182;24.308;2023-05-18T03:25:41;28.00;;;16.60;;
27839;SDS011;15207;42.182;24.308;2023-05-18T03:28:07;31.90;;;16.60;;
27839;SDS011;15207;42.182;24.308;2023-05-18T03:30:32;29.07;;;16.77;;
27839;SDS011;15207;42.182;24.308;2023-05-18T03:35:25;24.90;;;14.98;;
27839;SDS011;15207;42.182;24.308;2023-05-18T03:37:51;25.75;;;16.35;;
27839;SDS011;15207;42.182;24.308;2023-05-18T03:40:17;27.45;;;16.15;;
27839;SDS011;15207;42.182;24.308;2023-05-18T03:45:10;27.02;;;16.08;;
27839;SDS011;15207;42.182;24.308;2023-05-18T03:47:37;26.85;;;16.10;;
27839;SDS011;15207;42.182;24.308;2023-05-18T03:50:05;27.65;;;16.25;;
27839;SDS011;15207;42.182;24.308;2023-05-18T03:52:31;25.73;;;15.57;;
27839;SDS011;15207;42.182;24.308;2023-05-18T03:54:59;27.05;;;14.80;;
27839;SDS011;15207;42.182;24.308;2023-05-18T03:57:29;20.20;;;13.50;;
27839;SDS011;15207;42.182;24.308;2023-05-18T03:59:56;23.00;;;12.30;;
27839;SDS011;15207;42.182;24.308;2023-05-18T04:02:22;17.80;;;11.30;;
27839;SDS011;15207;42.182;24.308;2023-05-18T04:04:50;20.90;;;12.00;;
27839;SDS011;15207;42.182;24.308;2023-05-18T04:07:22;17.57;;;10.47;;
27839;SDS011;15207;42.182;24.308;2023-05-18T04:09:48;18.30;;;10.10;;
27839;SDS011;15207;42.182;24.308;2023-05-18T04:12:15;20.50;;;10.80;;
27839;SDS011;15207;42.182;24.308;2023-05-18T04:14:42;22.10;;;10.70;;
27839;SDS011;15207;42.182;24.308;2023-05-18T04:17:07;19.65;;;10.32;;
27839;SDS011;15207;42.182;24.308;2023-05-18T04:19:34;19.70;;;10.90;;
27839;SDS011;15207;42.182;24.308;2023-05-18T04:22:02;20.48;;;13.15;;
27839;SDS011;15207;42.182;24.308;2023-05-18T04:24:31;24.20;;;12.45;;
27839;SDS011;15207;42.182;24.308;2023-05-18T04:26:58;20.55;;;12.35;;
27839;SDS011;15207;42.182;24.308;2023-05-18T04:29:26;27.00;;;12.20;;
27839;SDS011;15207;42.182;24.308;2023-05-18T04:31:53;20.80;;;12.80;;
27839;SDS011;15207;42.182;24.308;2023-05-18T04:34:24;24.88;;;13.73;;
27839;SDS011;15207;42.182;24.308;2023-05-18T04:36:50;31.50;;;16.20;;
27839;SDS011;15207;42.182;24.308;2023-05-18T04:39:23;27.57;;;15.57;;
27839;SDS011;15207;42.182;24.308;2023-05-18T04:41:50;34.20;;;16.95;;
27839;SDS011;15207;42.182;24.308;2023-05-18T04:44:29;31.55;;;16.05;;
27839;SDS011;15207;42.182;24.308;2023-05-18T04:46:59;28.30;;;16.15;;
27839;SDS011;15207;42.182;24.308;2023-05-18T04:49:26;32.60;;;17.40;;
27839;SDS011;15207;42.182;24.308;2023-05-18T04:54:26;34.05;;;18.05;;
27839;SDS011;15207;42.182;24.308;2023-05-18T04:56:57;39.00;;;16.90;;
27839;SDS011;15207;42.182;24.308;2023-05-18T04:59:27;36.60;;;18.15;;
27839;SDS011;15207;42.182;24.308;2023-05-18T05:02:01;35.50;;;17.20;;
27839;SDS011;15207;42.182;24.308;2023-05-18T05:04:27;31.92;;;17.85;;
27839;SDS011;15207;42.182;24.308;2023-05-18T05:06:54;33.15;;;17.50;;
27839;SDS011;15207;42.182;24.308;2023-05-18T05:09:20;39.10;;;17.87;;
27839;SDS011;15207;42.182;24.308;2023-05-18T05:11:46;32.35;;;16.00;;
27839;SDS011;15207;42.182;24.308;2023-05-18T05:14:12;35.20;;;16.65;;
27839;SDS011;15207;42.182;24.308;2023-05-18T05:16:40;34.30;;;17.30;;
27839;SDS011;15207;42.182;24.308;2023-05-18T05:19:06;33.45;;;17.10;;
27839;SDS011;15207;42.182;24.308;2023-05-18T05:21:32;36.40;;;17.70;;
27839;SDS011;15207;42.182;24.308;2023-05-18T05:26:29;42.08;;;18.35;;
27839;SDS011;15207;42.182;24.308;2023-05-18T05:28:56;35.17;;;17.00;;
27839;SDS011;15207;42.182;24.308;2023-05-18T05:31:24;38.25;;;18.25;;
27839;SDS011;15207;42.182;24.308;2023-05-18T05:33:49;33.25;;;18.05;;
27839;SDS011;15207;42.182;24.308;2023-05-18T05:36:16;41.55;;;18.65;;
27839;SDS011;15207;42.182;24.308;2023-05-18T05:38:45;35.95;;;18.20;;
27839;SDS011;15207;42.182;24.308;2023-05-18T05:41:15;38.20;;;18.80;;
27839;SDS011;15207;42.182;24.308;2023-05-18T05:43:42;38.83;;;19.30;;
27839;SDS011;15207;42.182;24.308;2023-05-18T05:46:09;41.30;;;17.57;;
27839;SDS011;15207;42.182;24.308;2023-05-18T05:48:36;40.50;;;19.10;;
27839;SDS011;15207;42.182;24.308;2023-05-18T05:51:04;35.47;;;18.42;;
27839;SDS011;15207;42.182;24.308;2023-05-18T05:53:31;36.75;;;17.95;;
27839;SDS011;15207;42.182;24.308;2023-05-18T05:55:56;33.92;;;17.50;;
27839;SDS011;15207;42.182;24.308;2023-05-18T05:58:22;33.00;;;17.30;;
27839;SDS011;15207;42.182;24.308;2023-05-18T06:00:48;36.70;;;17.40;;
27839;SDS011;15207;42.182;24.308;2023-05-18T06:03:17;39.80;;;18.50;;
27839;SDS011;15207;42.182;24.308;2023-05-18T06:05:43;40.20;;;18.35;;
27839;SDS011;15207;42.182;24.308;2023-05-18T06:08:10;42.53;;;18.40;;
27839;SDS011;15207;42.182;24.308;2023-05-18T06:10:38;39.20;;;18.80;;
27839;SDS011;15207;42.182;24.308;2023-05-18T06:13:05;42.30;;;18.90;;
27839;SDS011;15207;42.182;24.308;2023-05-18T06:15:32;37.70;;;18.10;;
27839;SDS011;15207;42.182;24.308;2023-05-18T06:20:47;40.50;;;18.25;;
27839;SDS011;15207;42.182;24.308;2023-05-18T06:23:13;37.63;;;18.47;;
27839;SDS011;15207;42.182;24.308;2023-05-18T06:28:06;37.77;;;17.43;;
27839;SDS011;15207;42.182;24.308;2023-05-18T06:30:32;33.53;;;16.25;;
27839;SDS011;15207;42.182;24.308;2023-05-18T06:32:58;39.70;;;16.55;;
27839;SDS011;15207;42.182;24.308;2023-05-18T06:35:24;36.80;;;16.00;;
27839;SDS011;15207;42.182;24.308;2023-05-18T06:37:50;36.00;;;15.60;;
27839;SDS011;15207;42.182;24.308;2023-05-18T06:40:16;33.28;;;15.55;;
27839;SDS011;15207;42.182;24.308;2023-05-18T06:42:44;38.15;;;17.85;;
27839;SDS011;15207;42.182;24.308;2023-05-18T06:45:10;36.30;;;15.25;;
27839;SDS011;15207;42.182;24.308;2023-05-18T06:47:37;29.35;;;13.07;;
27839;SDS011;15207;42.182;24.308;2023-05-18T06:50:03;28.20;;;12.90;;
27839;SDS011;15207;42.182;24.308;2023-05-18T06:52:29;26.60;;;12.60;;
27839;SDS011;15207;42.182;24.308;2023-05-18T06:57:23;81.70;;;35.70;;
27839;SDS011;15207;42.182;24.308;2023-05-18T06:59:52;290.00;;;103.50;;
27839;SDS011;15207;42.182;24.308;2023-05-18T07:02:19;169.70;;;63.30;;
27839;SDS011;15207;42.182;24.308;2023-05-18T07:07:13;39.65;;;18.45;;
27839;SDS011;15207;42.182;24.308;2023-05-18T07:09:43;25.95;;;11.85;;
27839;SDS011;15207;42.182;24.308;2023-05-18T07:12:13;21.10;;;9.00;;
27839;SDS011;15207;42.182;24.308;2023-05-18T07:14:38;17.70;;;8.87;;
27839;SDS011;15207;42.182;24.308;2023-05-18T07:17:04;21.00;;;9.55;;
27839;SDS011;15207;42.182;24.308;2023-05-18T07:19:31;38.77;;;20.60;;
27839;SDS011;15207;42.182;24.308;2023-05-18T07:22:02;58.70;;;24.52;;
27839;SDS011;15207;42.182;24.308;2023-05-18T07:24:29;80.30;;;28.43;;
27839;SDS011;15207;42.182;24.308;2023-05-18T07:26:55;35.13;;;14.23;;
27839;SDS011;15207;42.182;24.308;2023-05-18T07:29:21;29.40;;;12.27;;
27839;SDS011;15207;42.182;24.308;2023-05-18T07:31:47;21.80;;;10.63;;
27839;SDS011;15207;42.182;24.308;2023-05-18T07:34:12;21.20;;;10.25;;
27839;SDS011;15207;42.182;24.308;2023-05-18T07:36:38;19.15;;;9.25;;
27839;SDS011;15207;42.182;24.308;2023-05-18T07:39:04;21.80;;;9.80;;
27839;SDS011;15207;42.182;24.308;2023-05-18T07:41:31;18.45;;;8.63;;
27839;SDS011;15207;42.182;24.308;2023-05-18T07:43:57;19.58;;;8.98;;
27839;SDS011;15207;42.182;24.308;2023-05-18T07:46:23;17.70;;;9.40;;
27839;SDS011;15207;42.182;24.308;2023-05-18T07:48:49;17.92;;;9.80;;
27839;SDS011;15207;42.182;24.308;2023-05-18T07:51:18;19.65;;;9.75;;
27839;SDS011;15207;42.182;24.308;2023-05-18T07:53:44;20.20;;;9.30;;
27839;SDS011;15207;42.182;24.308;2023-05-18T07:56:10;26.30;;;10.80;;
27839;SDS011;15207;42.182;24.308;2023-05-18T07:58:36;19.10;;;10.10;;
27839;SDS011;15207;42.182;24.308;2023-05-18T08:01:02;23.83;;;10.90;;
27839;SDS011;15207;42.182;24.308;2023-05-18T08:03:28;23.27;;;12.35;;
27839;SDS011;15207;42.182;24.308;2023-05-18T08:05:53;31.70;;;13.90;;
27839;SDS011;15207;42.182;24.308;2023-05-18T08:08:19;32.70;;;14.93;;
27839;SDS011;15207;42.182;24.308;2023-05-18T08:10:46;31.70;;;14.45;;
27839;SDS011;15207;42.182;24.308;2023-05-18T08:13:14;32.10;;;15.70;;
27839;SDS011;15207;42.182;24.308;2023-05-18T08:15:41;35.00;;;15.00;;
27839;SDS011;15207;42.182;24.308;2023-05-18T08:18:07;35.90;;;16.50;;
27839;SDS011;15207;42.182;24.308;2023-05-18T08:20:33;29.23;;;15.43;;
27839;SDS011;15207;42.182;24.308;2023-05-18T08:22:59;33.70;;;16.30;;
27839;SDS011;15207;42.182;24.308;2023-05-18T08:25:25;33.25;;;16.90;;
27839;SDS011;15207;42.182;24.308;2023-05-18T08:27:50;33.05;;;16.95;;
27839;SDS011;15207;42.182;24.308;2023-05-18T08:30:17;33.40;;;16.70;;
27839;SDS011;15207;42.182;24.308;2023-05-18T08:32:46;31.30;;;15.70;;
27839;SDS011;15207;42.182;24.308;2023-05-18T08:35:12;36.65;;;16.65;;
27839;SDS011;15207;42.182;24.308;2023-05-18T08:37:38;35.80;;;15.90;;
27839;SDS011;15207;42.182;24.308;2023-05-18T08:40:04;38.25;;;16.55;;
27839;SDS011;15207;42.182;24.308;2023-05-18T08:42:41;33.05;;;14.88;;
27839;SDS011;15207;42.182;24.308;2023-05-18T08:50:30;30.50;;;13.50;;
27839;SDS011;15207;42.182;24.308;2023-05-18T08:52:59;29.33;;;14.02;;
27839;SDS011;15207;42.182;24.308;2023-05-18T08:55:32;26.10;;;12.60;;
27839;SDS011;15207;42.182;24.308;2023-05-18T08:58:02;28.70;;;13.63;;
27839;SDS011;15207;42.182;24.308;2023-05-18T09:00:31;28.30;;;14.30;;
27839;SDS011;15207;42.182;24.308;2023-05-18T09:02:57;26.50;;;13.80;;
27839;SDS011;15207;42.182;24.308;2023-05-18T09:05:24;29.30;;;13.90;;
27839;SDS011;15207;42.182;24.308;2023-05-18T09:07:51;29.80;;;14.15;;
27839;SDS011;15207;42.182;24.308;2023-05-18T09:10:18;32.00;;;14.50;;
27839;SDS011;15207;42.182;24.308;2023-05-18T09:12:44;26.20;;;13.60;;
27839;SDS011;15207;42.182;24.308;2023-05-18T09:15:12;23.70;;;12.70;;
27839;SDS011;15207;42.182;24.308;2023-05-18T09:17:39;26.70;;;13.30;;
27839;SDS011;15207;42.182;24.308;2023-05-18T09:20:06;27.30;;;14.75;;
27839;SDS011;15207;42.182;24.308;2023-05-18T09:22:32;30.60;;;13.30;;
27839;SDS011;15207;42.182;24.308;2023-05-18T09:25:07;28.30;;;14.43;;
27839;SDS011;15207;42.182;24.308;2023-05-18T09:27:37;26.80;;;13.95;;
27839;SDS011;15207;42.182;24.308;2023-05-18T09:30:03;22.30;;;12.20;;
27839;SDS011;15207;42.182;24.308;2023-05-18T09:32:30;17.40;;;9.50;;
27839;SDS011;15207;42.182;24.308;2023-05-18T09:35:02;9.63;;;4.40;;
27839;SDS011;15207;42.182;24.308;2023-05-18T09:37:33;8.75;;;4.55;;
27839;SDS011;15207;42.182;24.308;2023-05-18T09:40:00;5.03;;;3.30;;
27839;SDS011;15207;42.182;24.308;2023-05-18T09:42:37;5.70;;;3.80;;
27839;SDS011;15207;42.182;24.308;2023-05-18T09:45:20;7.00;;;3.55;;
27839;SDS011;15207;42.182;24.308;2023-05-18T09:47:51;7.25;;;4.50;;
27839;SDS011;15207;42.182;24.308;2023-05-18T09:50:17;7.80;;;5.00;;
27839;SDS011;15207;42.182;24.308;2023-05-18T09:55:11;14.10;;;6.60;;
27839;SDS011;15207;42.182;24.308;2023-05-18T09:57:41;11.40;;;5.50;;
27839;SDS011;15207;42.182;24.308;2023-05-18T10:00:10;9.00;;;5.60;;
27839;SDS011;15207;42.182;24.308;2023-05-18T10:02:38;10.17;;;6.17;;
27839;SDS011;15207;42.182;24.308;2023-05-18T10:05:25;13.73;;;4.73;;
27839;SDS011;15207;42.182;24.308;2023-05-18T10:07:55;8.23;;;4.73;;
27839;SDS011;15207;42.182;24.308;2023-05-18T10:10:24;10.10;;;5.10;;
27839;SDS011;15207;42.182;24.308;2023-05-18T10:12:51;8.73;;;5.60;;
27839;SDS011;15207;42.182;24.308;2023-05-18T10:15:22;9.35;;;5.40;;
27839;SDS011;15207;42.182;24.308;2023-05-18T10:17:49;9.20;;;5.70;;
27839;SDS011;15207;42.182;24.308;2023-05-18T10:20:22;7.00;;;4.10;;
27839;SDS011;15207;42.182;24.308;2023-05-18T10:22:49;8.20;;;5.20;;
27839;SDS011;15207;42.182;24.308;2023-05-18T10:25:17;10.57;;;5.20;;
27839;SDS011;15207;42.182;24.308;2023-05-18T10:27:49;7.80;;;4.50;;
27839;SDS011;15207;42.182;24.308;2023-05-18T10:30:20;11.30;;;5.20;;
27839;SDS011;15207;42.182;24.308;2023-05-18T10:32:48;13.50;;;5.70;;
27839;SDS011;15207;42.182;24.308;2023-05-18T10:35:15;21.10;;;7.77;;
27839;SDS011;15207;42.182;24.308;2023-05-18T10:37:44;13.00;;;6.60;;
27839;SDS011;15207;42.182;24.308;2023-05-18T10:40:15;11.80;;;5.35;;
27839;SDS011;15207;42.182;24.308;2023-05-18T10:42:42;202.50;;;67.90;;
27839;SDS011;15207;42.182;24.308;2023-05-18T10:45:09;22.30;;;9.55;;
27839;SDS011;15207;42.182;24.308;2023-05-18T10:47:36;9.10;;;5.15;;
27839;SDS011;15207;42.182;24.308;2023-05-18T10:50:07;10.10;;;4.80;;
27839;SDS011;15207;42.182;24.308;2023-05-18T10:52:35;10.87;;;5.37;;
27839;SDS011;15207;42.182;24.308;2023-05-18T10:55:06;6.90;;;5.10;;
27839;SDS011;15207;42.182;24.308;2023-05-18T10:57:38;9.40;;;5.10;;
27839;SDS011;15207;42.182;24.308;2023-05-18T11:00:10;11.13;;;5.15;;
27839;SDS011;15207;42.182;24.308;2023-05-18T11:02:37;14.00;;;5.70;;
27839;SDS011;15207;42.182;24.308;2023-05-18T11:05:06;8.15;;;4.60;;
27839;SDS011;15207;42.182;24.308;2023-05-18T11:07:35;13.00;;;6.40;;
27839;SDS011;15207;42.182;24.308;2023-05-18T11:10:02;9.65;;;5.20;;
27839;SDS011;15207;42.182;24.308;2023-05-18T11:12:39;11.00;;;5.60;;
27839;SDS011;15207;42.182;24.308;2023-05-18T11:15:06;13.95;;;5.70;;
27839;SDS011;15207;42.182;24.308;2023-05-18T11:17:32;13.27;;;5.78;;
27839;SDS011;15207;42.182;24.308;2023-05-18T11:27:54;9.80;;;5.30;;
27839;SDS011;15207;42.182;24.308;2023-05-18T11:30:30;10.60;;;4.70;;
27839;SDS011;15207;42.182;24.308;2023-05-18T11:33:13;9.63;;;5.65;;
27839;SDS011;15207;42.182;24.308;2023-05-18T11:44:04;42.10;;;13.17;;
27839;SDS011;15207;42.182;24.308;2023-05-18T11:46:36;165.90;;;69.80;;
27839;SDS011;15207;42.182;24.308;2023-05-18T11:49:19;22.95;;;12.05;;
27839;SDS011;15207;42.182;24.308;2023-05-18T11:59:56;7.75;;;4.40;;
27839;SDS011;15207;42.182;24.308;2023-05-18T12:02:26;11.60;;;4.65;;
27839;SDS011;15207;42.182;24.308;2023-05-18T12:04:58;9.50;;;4.90;;
27839;SDS011;15207;42.182;24.308;2023-05-18T12:10:03;9.90;;;3.90;;
27839;SDS011;15207;42.182;24.308;2023-05-18T12:12:32;2.90;;;2.10;;
27839;SDS011;15207;42.182;24.308;2023-05-18T12:14:59;2.15;;;1.80;;
27839;SDS011;15207;42.182;24.308;2023-05-18T12:20:18;2.85;;;2.00;;
27839;SDS011;15207;42.182;24.308;2023-05-18T12:22:46;4.40;;;2.30;;
27839;SDS011;15207;42.182;24.308;2023-05-18T12:25:14;3.40;;;2.00;;
27839;SDS011;15207;42.182;24.308;2023-05-18T12:27:42;7.68;;;2.38;;
27839;SDS011;15207;42.182;24.308;2023-05-18T12:30:10;15.40;;;3.00;;
27839;SDS011;15207;42.182;24.308;2023-05-18T12:32:38;5.25;;;2.60;;
27839;SDS011;15207;42.182;24.308;2023-05-18T12:35:08;7.97;;;2.70;;
27839;SDS011;15207;42.182;24.308;2023-05-18T12:37:40;3.90;;;2.58;;
27839;SDS011;15207;42.182;24.308;2023-05-18T12:40:14;6.30;;;2.55;;
27839;SDS011;15207;42.182;24.308;2023-05-18T12:45:29;4.95;;;2.90;;
27839;SDS011;15207;42.182;24.308;2023-05-18T12:47:56;4.80;;;2.70;;
27839;SDS011;15207;42.182;24.308;2023-05-18T12:50:31;5.20;;;2.80;;
27839;SDS011;15207;42.182;24.308;2023-05-18T12:52:57;6.30;;;3.00;;
27839;SDS011;15207;42.182;24.308;2023-05-18T12:55:23;5.25;;;3.03;;
27839;SDS011;15207;42.182;24.308;2023-05-18T13:00:26;4.40;;;2.90;;
27839;SDS011;15207;42.182;24.308;2023-05-18T13:02:51;5.10;;;2.77;;
27839;SDS011;15207;42.182;24.308;2023-05-18T13:05:21;4.47;;;2.80;;
27839;SDS011;15207;42.182;24.308;2023-05-18T13:07:48;5.50;;;3.00;;
27839;SDS011;15207;42.182;24.308;2023-05-18T13:10:15;6.65;;;3.47;;
27839;SDS011;15207;42.182;24.308;2023-05-18T13:12:49;3.55;;;2.30;;
27839;SDS011;15207;42.182;24.308;2023-05-18T13:15:17;4.50;;;2.80;;
27839;SDS011;15207;42.182;24.308;2023-05-18T13:18:00;4.05;;;2.60;;
27839;SDS011;15207;42.182;24.308;2023-05-18T13:20:31;5.50;;;3.00;;
27839;SDS011;15207;42.182;24.308;2023-05-18T13:23:01;6.15;;;2.92;;
27839;SDS011;15207;42.182;24.308;2023-05-18T13:25:28;4.50;;;3.13;;
27839;SDS011;15207;42.182;24.308;2023-05-18T13:27:54;4.00;;;2.80;;
27839;SDS011;15207;42.182;24.308;2023-05-18T13:30:21;5.80;;;3.00;;
27839;SDS011;15207;42.182;24.308;2023-05-18T13:32:47;7.25;;;3.50;;
27839;SDS011;15207;42.182;24.308;2023-05-18T13:35:12;10.23;;;3.17;;
27839;SDS011;15207;42.182;24.308;2023-05-18T13:37:38;3.50;;;2.60;;
27839;SDS011;15207;42.182;24.308;2023-05-18T13:40:05;5.18;;;3.22;;
27839;SDS011;15207;42.182;24.308;2023-05-18T13:42:31;6.90;;;4.10;;
27839;SDS011;15207;42.182;24.308;2023-05-18T13:44:57;4.00;;;3.20;;
27839;SDS011;15207;42.182;24.308;2023-05-18T13:47:23;7.70;;;3.50;;
27839;SDS011;15207;42.182;24.308;2023-05-18T13:49:50;3.70;;;2.60;;
27839;SDS011;15207;42.182;24.308;2023-05-18T13:52:17;5.27;;;3.30;;
27839;SDS011;15207;42.182;24.308;2023-05-18T13:54:43;4.80;;;2.55;;
27839;SDS011;15207;42.182;24.308;2023-05-18T13:57:08;3.60;;;2.10;;
27839;SDS011;15207;42.182;24.308;2023-05-18T13:59:34;2.65;;;1.95;;
27839;SDS011;15207;42.182;24.308;2023-05-18T14:02:00;5.65;;;2.50;;
27839;SDS011;15207;42.182;24.308;2023-05-18T14:04:26;2.90;;;2.20;;
27839;SDS011;15207;42.182;24.308;2023-05-18T14:06:52;2.60;;;1.90;;
27839;SDS011;15207;42.182;24.308;2023-05-18T14:09:26;7.75;;;2.35;;
27839;SDS011;15207;42.182;24.308;2023-05-18T14:11:54;5.10;;;3.10;;
27839;SDS011;15207;42.182;24.308;2023-05-18T14:14:20;6.00;;;2.80;;
27839;SDS011;15207;42.182;24.308;2023-05-18T14:16:47;6.50;;;3.70;;
27839;SDS011;15207;42.182;24.308;2023-05-18T14:19:13;5.65;;;3.40;;
27839;SDS011;15207;42.182;24.308;2023-05-18T14:21:39;5.60;;;3.10;;
27839;SDS011;15207;42.182;24.308;2023-05-18T14:24:05;5.50;;;2.70;;
27839;SDS011;15207;42.182;24.308;2023-05-18T14:26:32;7.00;;;3.80;;
27839;SDS011;15207;42.182;24.308;2023-05-18T14:28:58;7.45;;;3.60;;
27839;SDS011;15207;42.182;24.308;2023-05-18T14:31:24;6.20;;;3.20;;
27839;SDS011;15207;42.182;24.308;2023-05-18T14:33:50;5.55;;;3.65;;
27839;SDS011;15207;42.182;24.308;2023-05-18T14:36:15;6.65;;;3.30;;
27839;SDS011;15207;42.182;24.308;2023-05-18T14:38:41;4.35;;;2.90;;
27839;SDS011;15207;42.182;24.308;2023-05-18T14:41:07;4.35;;;2.55;;
27839;SDS011;15207;42.182;24.308;2023-05-18T14:43:33;4.30;;;2.40;;
27839;SDS011;15207;42.182;24.308;2023-05-18T14:45:58;4.65;;;2.50;;
27839;SDS011;15207;42.182;24.308;2023-05-18T14:48:24;4.10;;;2.40;;
27839;SDS011;15207;42.182;24.308;2023-05-18T14:50:50;3.40;;;2.60;;
27839;SDS011;15207;42.182;24.308;2023-05-18T14:53:16;8.75;;;3.00;;
27839;SDS011;15207;42.182;24.308;2023-05-18T14:55:41;4.80;;;2.60;;
27839;SDS011;15207;42.182;24.308;2023-05-18T14:58:07;3.45;;;2.20;;
27839;SDS011;15207;42.182;24.308;2023-05-18T15:00:36;3.45;;;2.25;;
27839;SDS011;15207;42.182;24.308;2023-05-18T15:03:01;4.35;;;2.05;;
27839;SDS011;15207;42.182;24.308;2023-05-18T15:05:27;4.60;;;2.80;;
27839;SDS011;15207;42.182;24.308;2023-05-18T15:07:53;6.40;;;2.47;;
27839;SDS011;15207;42.182;24.308;2023-05-18T15:10:19;7.80;;;3.50;;
27839;SDS011;15207;42.182;24.308;2023-05-18T15:12:47;6.20;;;2.90;;
27839;SDS011;15207;42.182;24.308;2023-05-18T15:15:13;5.00;;;2.70;;
27839;SDS011;15207;42.182;24.308;2023-05-18T15:17:39;4.68;;;2.53;;
27839;SDS011;15207;42.182;24.308;2023-05-18T15:20:05;4.70;;;2.60;;
27839;SDS011;15207;42.182;24.308;2023-05-18T15:22:32;6.70;;;2.55;;
27839;SDS011;15207;42.182;24.308;2023-05-18T15:25:03;6.77;;;2.27;;
27839;SDS011;15207;42.182;24.308;2023-05-18T15:27:33;3.83;;;2.15;;
27839;SDS011;15207;42.182;24.308;2023-05-18T15:29:59;4.80;;;2.20;;
27839;SDS011;15207;42.182;24.308;2023-05-18T15:32:25;3.58;;;2.15;;
27839;SDS011;15207;42.182;24.308;2023-05-18T15:34:51;4.50;;;2.50;;
27839;SDS011;15207;42.182;24.308;2023-05-18T15:37:18;7.00;;;2.65;;
27839;SDS011;15207;42.182;24.308;2023-05-18T15:39:44;4.68;;;2.40;;
27839;SDS011;15207;42.182;24.308;2023-05-18T15:42:10;3.70;;;2.40;;
27839;SDS011;15207;42.182;24.308;2023-05-18T15:44:35;3.75;;;2.10;;